Sahuarita, Arizona
Current Conditions -  °F | °C
As of 11:53 AM on Saturday 25 Oct 2014 (Local Time) from KTUS Reporting Station
Clear Clear  
Wind Chill: 91°   Ceiling: Unl
Heat Index: 91°   Visibility: 10mi
Dew Point: 44°   Wind: 3mph
Humidity: 20%   Direction: 140°SE
Pressure: 30.1"   Gusts: NA
Location:  31.96°N, 110.96°W
Report Text: KTUS 251853Z 14003KT 10SM CLR 33/07 A3010 RMK AO2 SLP147 T03280067
Loading
Personal Weather Stations






























Interactive Weather Map
Tropical Storm Tracking
New forecast layout! Learn more

10-Day Weather Forecast

Advertisements
Track Severe Weather on mobile